S S S Propeller — WDC8071 — position and weather

sailwx.info

Track history (hours):
 
Tides and Currents Weather Stations Pressure Air Temp Water Temp Dewpoint Dewpoint Depression Visibility Wind Speed Wind Dir Waves Ship Positions

S S S Propeller

Owner: S.S.S. Propeller Boy Scouts of America Chief Seattle Council, Auburn, WA. More information available from US FCC via Universal Licensing System and Coast Guard Vessel Documentation Center.

Last reported at 2017-Dec-30 23:05 UTC. Time now 2018-Feb-20 03:59 UTC.
Position N 47°39' W 122°20'.
Warning: this ship's position is 51 days out of date.

Length 19 m.

Type: Passenger vessel. MMSI: 367028000.

Date/timePositionNaut miles runAvg speedWind from/ knotsBaromVisibWave heightAir tempDewpointWater temp
2017-Dec-30 23:05N 47°39' W 122°20'0 6.1
2017-Dec-30 23:00N 47°39' W 122°21'2 3.1
2017-Dec-30 22:30N 47°39' W 122°23'1 1.8
2017-Dec-30 22:00N 47°40' W 122°24'2 3.6
2017-Dec-30 21:30N 47°40' W 122°26'4 8.9
2017-Dec-30 21:00N 47°35' W 122°26'4 8.8
2017-Dec-30 20:30N 47°31' W 122°25'4 8.7
2017-Dec-30 20:00N 47°27' W 122°23'4 7.8
2017-Dec-30 19:30N 47°23' W 122°22'5 8.7
2017-Dec-30 18:59N 47°20' W 122°28'2 3.5
2017-Dec-30 18:25N 47°22' W 122°27'0 0.0
2017-Dec-30 17:55N 47°22' W 122°27'0 0.0
2017-Dec-30 17:25N 47°22' W 122°27'0 0.0
2017-Dec-30 16:55N 47°22' W 122°27'0 0.0
2017-Dec-30 16:25N 47°22' W 122°27'0 0.0
2017-Dec-30 15:58N 47°22' W 122°27'0 0.0
2017-Dec-30 15:25N 47°22' W 122°27'0 0.0
2017-Dec-30 14:55N 47°22' W 122°27'0 0.0
2017-Dec-30 14:28N 47°22' W 122°27'0 0.0
2017-Dec-30 13:55N 47°22' W 122°27'0 0.0
2017-Dec-30 13:28N 47°22' W 122°27'0 0.0
2017-Dec-30 12:55N 47°22' W 122°27'0 0.0
2017-Dec-30 12:28N 47°22' W 122°27'0 0.0
2017-Dec-30 11:58N 47°22' W 122°27'0 0.0
2017-Dec-30 11:25N 47°22' W 122°27'0 0.0
2017-Dec-30 10:58N 47°22' W 122°27'0 0.0
2017-Dec-30 10:25N 47°22' W 122°27'0 0.0
2017-Dec-30 09:58N 47°22' W 122°27'0 0.0
2017-Dec-30 09:28N 47°22' W 122°27'0 0.0
2017-Dec-30 08:58N 47°22' W 122°27'0 0.0
2017-Dec-30 08:25N 47°22' W 122°27'0 0.0
2017-Dec-30 07:53N 47°22' W 122°27'0 0.0
2017-Dec-30 07:28N 47°22' W 122°27'0 0.0
2017-Dec-30 06:56N 47°22' W 122°27'0 0.0
2017-Dec-30 06:28N 47°22' W 122°27'0 0.0
2017-Dec-30 05:59N 47°22' W 122°27'0 0.0
2017-Dec-30 05:28N 47°22' W 122°27'0 0.0
2017-Dec-30 04:50N 47°22' W 122°27'0 0.0
2017-Dec-30 04:29N 47°22' W 122°27'0 0.0
2017-Dec-30 03:59N 47°22' W 122°27'0 0.0
2017-Dec-30 03:29N 47°22' W 122°27'0 0.0
2017-Dec-30 02:59N 47°22' W 122°27'0 0.0
2017-Dec-30 02:29N 47°22' W 122°27'0 0.0
2017-Dec-30 01:59N 47°22' W 122°27'0 0.0
2017-Dec-30 01:29N 47°22' W 122°27'1 2.0
2017-Dec-30 01:00N 47°22' W 122°29'3 6.6
2017-Dec-30 00:30N 47°20' W 122°32'2 0.1
2017-Dec-28 20:46N 47°20' W 122°35'2 6.0
2017-Dec-28 20:29N 47°21' W 122°33'3 5.2
2017-Dec-28 20:00N 47°23' W 122°32'4 7.7
2017-Dec-28 19:29N 47°27' W 122°31'1 1.4
2017-Dec-28 19:00N 47°28' W 122°31'3 7.0
2017-Dec-28 18:30N 47°31' W 122°29'1 2.6
2017-Dec-28 17:59N 47°33' W 122°29'0 0.0
2017-Dec-28 17:29N 47°33' W 122°29'0 0.0
2017-Dec-28 16:59N 47°33' W 122°29'0 0.0
2017-Dec-28 16:29N 47°33' W 122°29'0 0.0
2017-Dec-28 15:59N 47°33' W 122°29'0 0.0
2017-Dec-28 15:29N 47°33' W 122°29'0 0.0
2017-Dec-28 14:59N 47°33' W 122°29'0 0.0
2017-Dec-28 14:29N 47°33' W 122°29'0 0.0
2017-Dec-28 13:56N 47°33' W 122°29'0 0.1
2017-Dec-28 13:29N 47°33' W 122°29'0 0.1
2017-Dec-28 12:59N 47°33' W 122°29'0 0.0
2017-Dec-28 12:29N 47°33' W 122°29'0 0.0
2017-Dec-28 11:59N 47°33' W 122°29'0 0.0
2017-Dec-28 11:29N 47°33' W 122°29'0 0.0
2017-Dec-28 10:59N 47°33' W 122°29'0 0.0
2017-Dec-28 10:29N 47°33' W 122°29'0 0.0
2017-Dec-28 09:59N 47°33' W 122°29'0 0.0
2017-Dec-28 09:29N 47°33' W 122°29'0 0.0
2017-Dec-28 08:59N 47°33' W 122°29'0 0.0
2017-Dec-28 08:29N 47°33' W 122°29'0 0.0
2017-Dec-28 07:59N 47°33' W 122°29'0 0.0
2017-Dec-28 07:29N 47°33' W 122°29'0 0.0
2017-Dec-28 06:59N 47°33' W 122°29'0 0.0
2017-Dec-28 06:29N 47°33' W 122°29'0 0.0
2017-Dec-28 05:59N 47°33' W 122°29'0 0.0
2017-Dec-28 05:29N 47°33' W 122°29'0 0.0
2017-Dec-28 04:59N 47°33' W 122°29'0 0.0
2017-Dec-28 04:29N 47°33' W 122°29'0 0.0
2017-Dec-28 03:59N 47°33' W 122°29'0 0.0
2017-Dec-28 03:29N 47°33' W 122°29'0 0.0
2017-Dec-28 02:59N 47°33' W 122°29'0 0.0
2017-Dec-28 02:29N 47°33' W 122°29'0 0.0
2017-Dec-28 01:59N 47°33' W 122°29'0 0.0
2017-Dec-28 01:29N 47°33' W 122°29'0 0.0
2017-Dec-28 00:59N 47°33' W 122°29'0 0.0
2017-Dec-28 00:29N 47°33' W 122°29'0 0.0
2017-Dec-27 23:59N 47°33' W 122°29'0 0.0
2017-Dec-27 23:29N 47°33' W 122°29'0 0.1
2017-Dec-27 22:59N 47°33' W 122°29'3 6.2
2017-Dec-27 22:30N 47°35' W 122°27'4 7.0
2017-Dec-27 22:00N 47°39' W 122°27'2 3.9
2017-Dec-27 21:30N 47°41' W 122°26'2 3.4
2017-Dec-27 21:00N 47°40' W 122°24'0 0.4
2017-Dec-27 20:28N 47°40' W 122°23'0 0.9
2017-Dec-27 20:00N 47°40' W 122°23'1 1.6
2017-Dec-27 19:30N 47°39' W 122°22'1 1.2
2017-Dec-27 18:16N 47°39' W 122°20'0 0.0
2017-Dec-27 17:58N 47°39' W 122°20'  
Track history (hours):
 
Tides and Currents Weather Stations Pressure Air Temp Water Temp Dewpoint Dewpoint Depression Visibility Wind Speed Wind Dir Waves Ship Positions

S S S Propeller

Owner: S.S.S. Propeller Boy Scouts of America Chief Seattle Council, Auburn, WA. More information available from US FCC via Universal Licensing System and Coast Guard Vessel Documentation Center.

Last reported at 2017-Dec-30 23:05 UTC. Time now 2018-Feb-20 04:00 UTC.
Position N 47°39' W 122°20'.
Warning: this ship's position is 51 days out of date.

Length 19 m.

Type: Passenger vessel. MMSI: 367028000.

Date/timePositionNaut miles runAvg speedWind from/ knotsBaromVisibWave heightAir tempDewpointWater temp
2017-Dec-30 23:05N 47°39' W 122°20'0 6.1
2017-Dec-30 23:00N 47°39' W 122°21'2 3.1
2017-Dec-30 22:30N 47°39' W 122°23'1 1.8
2017-Dec-30 22:00N 47°40' W 122°24'2 3.6
2017-Dec-30 21:30N 47°40' W 122°26'4 8.9
2017-Dec-30 21:00N 47°35' W 122°26'4 8.8
2017-Dec-30 20:30N 47°31' W 122°25'4 8.7
2017-Dec-30 20:00N 47°27' W 122°23'4 7.8
2017-Dec-30 19:30N 47°23' W 122°22'5 8.7
2017-Dec-30 18:59N 47°20' W 122°28'2 3.5
2017-Dec-30 18:25N 47°22' W 122°27'0 0.0
2017-Dec-30 17:55N 47°22' W 122°27'0 0.0
2017-Dec-30 17:25N 47°22' W 122°27'0 0.0
2017-Dec-30 16:55N 47°22' W 122°27'0 0.0
2017-Dec-30 16:25N 47°22' W 122°27'0 0.0
2017-Dec-30 15:58N 47°22' W 122°27'0 0.0
2017-Dec-30 15:25N 47°22' W 122°27'0 0.0
2017-Dec-30 14:55N 47°22' W 122°27'0 0.0
2017-Dec-30 14:28N 47°22' W 122°27'0 0.0
2017-Dec-30 13:55N 47°22' W 122°27'0 0.0
2017-Dec-30 13:28N 47°22' W 122°27'0 0.0
2017-Dec-30 12:55N 47°22' W 122°27'0 0.0
2017-Dec-30 12:28N 47°22' W 122°27'0 0.0
2017-Dec-30 11:58N 47°22' W 122°27'0 0.0
2017-Dec-30 11:25N 47°22' W 122°27'0 0.0
2017-Dec-30 10:58N 47°22' W 122°27'0 0.0
2017-Dec-30 10:25N 47°22' W 122°27'0 0.0
2017-Dec-30 09:58N 47°22' W 122°27'0 0.0
2017-Dec-30 09:28N 47°22' W 122°27'0 0.0
2017-Dec-30 08:58N 47°22' W 122°27'0 0.0
2017-Dec-30 08:25N 47°22' W 122°27'0 0.0
2017-Dec-30 07:53N 47°22' W 122°27'0 0.0
2017-Dec-30 07:28N 47°22' W 122°27'0 0.0
2017-Dec-30 06:56N 47°22' W 122°27'0 0.0
2017-Dec-30 06:28N 47°22' W 122°27'0 0.0
2017-Dec-30 05:59N 47°22' W 122°27'0 0.0
2017-Dec-30 05:28N 47°22' W 122°27'0 0.0
2017-Dec-30 04:50N 47°22' W 122°27'0 0.0
2017-Dec-30 04:29N 47°22' W 122°27'0 0.0
2017-Dec-30 03:59N 47°22' W 122°27'0 0.0
2017-Dec-30 03:29N 47°22' W 122°27'0 0.0
2017-Dec-30 02:59N 47°22' W 122°27'0 0.0
2017-Dec-30 02:29N 47°22' W 122°27'0 0.0
2017-Dec-30 01:59N 47°22' W 122°27'0 0.0
2017-Dec-30 01:29N 47°22' W 122°27'1 2.0
2017-Dec-30 01:00N 47°22' W 122°29'3 6.6
2017-Dec-30 00:30N 47°20' W 122°32'2 0.1
2017-Dec-28 20:46N 47°20' W 122°35'2 6.0
2017-Dec-28 20:29N 47°21' W 122°33'3 5.2
2017-Dec-28 20:00N 47°23' W 122°32'4 7.7
2017-Dec-28 19:29N 47°27' W 122°31'1 1.4
2017-Dec-28 19:00N 47°28' W 122°31'3 7.0
2017-Dec-28 18:30N 47°31' W 122°29'1 2.6
2017-Dec-28 17:59N 47°33' W 122°29'0 0.0
2017-Dec-28 17:29N 47°33' W 122°29'0 0.0
2017-Dec-28 16:59N 47°33' W 122°29'0 0.0
2017-Dec-28 16:29N 47°33' W 122°29'0 0.0
2017-Dec-28 15:59N 47°33' W 122°29'0 0.0
2017-Dec-28 15:29N 47°33' W 122°29'0 0.0
2017-Dec-28 14:59N 47°33' W 122°29'0 0.0
2017-Dec-28 14:29N 47°33' W 122°29'0 0.0
2017-Dec-28 13:56N 47°33' W 122°29'0 0.1
2017-Dec-28 13:29N 47°33' W 122°29'0 0.1
2017-Dec-28 12:59N 47°33' W 122°29'0 0.0
2017-Dec-28 12:29N 47°33' W 122°29'0 0.0
2017-Dec-28 11:59N 47°33' W 122°29'0 0.0
2017-Dec-28 11:29N 47°33' W 122°29'0 0.0
2017-Dec-28 10:59N 47°33' W 122°29'0 0.0
2017-Dec-28 10:29N 47°33' W 122°29'0 0.0
2017-Dec-28 09:59N 47°33' W 122°29'0 0.0
2017-Dec-28 09:29N 47°33' W 122°29'0 0.0
2017-Dec-28 08:59N 47°33' W 122°29'0 0.0
2017-Dec-28 08:29N 47°33' W 122°29'0 0.0
2017-Dec-28 07:59N 47°33' W 122°29'0 0.0
2017-Dec-28 07:29N 47°33' W 122°29'0 0.0
2017-Dec-28 06:59N 47°33' W 122°29'0 0.0
2017-Dec-28 06:29N 47°33' W 122°29'0 0.0
2017-Dec-28 05:59N 47°33' W 122°29'0 0.0
2017-Dec-28 05:29N 47°33' W 122°29'0 0.0
2017-Dec-28 04:59N 47°33' W 122°29'0 0.0
2017-Dec-28 04:29N 47°33' W 122°29'0 0.0
2017-Dec-28 03:59N 47°33' W 122°29'0 0.0
2017-Dec-28 03:29N 47°33' W 122°29'0 0.0
2017-Dec-28 02:59N 47°33' W 122°29'0 0.0
2017-Dec-28 02:29N 47°33' W 122°29'0 0.0
2017-Dec-28 01:59N 47°33' W 122°29'0 0.0
2017-Dec-28 01:29N 47°33' W 122°29'0 0.0
2017-Dec-28 00:59N 47°33' W 122°29'0 0.0
2017-Dec-28 00:29N 47°33' W 122°29'0 0.0
2017-Dec-27 23:59N 47°33' W 122°29'0 0.0
2017-Dec-27 23:29N 47°33' W 122°29'0 0.1
2017-Dec-27 22:59N 47°33' W 122°29'3 6.2
2017-Dec-27 22:30N 47°35' W 122°27'4 7.0
2017-Dec-27 22:00N 47°39' W 122°27'2 3.9
2017-Dec-27 21:30N 47°41' W 122°26'2 3.4
2017-Dec-27 21:00N 47°40' W 122°24'0 0.4
2017-Dec-27 20:28N 47°40' W 122°23'0 0.9
2017-Dec-27 20:00N 47°40' W 122°23'1 1.6
2017-Dec-27 19:30N 47°39' W 122°22'1 1.2
2017-Dec-27 18:16N 47°39' W 122°20'0 0.0
2017-Dec-27 17:58N 47°39' W 122°20'  

Dump ship's entire track history